sensor_id;sensor_type;location;lat;lon;timestamp;pressure;altitude;pressure_sealevel;temperature;humidity
14882;BME280;7533;51.278;12.588;2023-08-06T00:01:14;99269.63;;;29.47;54.41
14882;BME280;7533;51.278;12.588;2023-08-06T00:06:17;99258.03;;;29.45;54.30
14882;BME280;7533;51.278;12.588;2023-08-06T00:11:20;99252.78;;;29.43;54.57
14882;BME280;7533;51.278;12.588;2023-08-06T00:16:24;99246.09;;;29.46;54.65
14882;BME280;7533;51.278;12.588;2023-08-06T00:21:27;99242.72;;;29.44;54.65
14882;BME280;7533;51.278;12.588;2023-08-06T00:26:30;99227.41;;;29.43;54.75
14882;BME280;7533;51.278;12.588;2023-08-06T00:31:34;99232.06;;;29.34;54.99
14882;BME280;7533;51.278;12.588;2023-08-06T00:36:37;99233.09;;;29.33;55.17
14882;BME280;7533;51.278;12.588;2023-08-06T00:41:40;99239.47;;;29.25;55.39
14882;BME280;7533;51.278;12.588;2023-08-06T00:46:44;99235.78;;;29.18;55.08
14882;BME280;7533;51.278;12.588;2023-08-06T00:51:48;99232.75;;;29.13;55.51
14882;BME280;7533;51.278;12.588;2023-08-06T00:56:52;99226.47;;;29.13;55.50
14882;BME280;7533;51.278;12.588;2023-08-06T01:01:57;99221.06;;;29.05;55.73
14882;BME280;7533;51.278;12.588;2023-08-06T01:07:14;99222.31;;;28.94;55.55
14882;BME280;7533;51.278;12.588;2023-08-06T01:12:26;99220.94;;;28.90;55.15
14882;BME280;7533;51.278;12.588;2023-08-06T01:17:36;99209.91;;;28.91;55.64
14882;BME280;7533;51.278;12.588;2023-08-06T01:22:40;99206.88;;;28.86;56.02
14882;BME280;7533;51.278;12.588;2023-08-06T01:27:45;99198.56;;;28.80;56.05
14882;BME280;7533;51.278;12.588;2023-08-06T01:32:50;99198.78;;;28.70;55.92
14882;BME280;7533;51.278;12.588;2023-08-06T01:37:57;99195.41;;;28.68;55.98
14882;BME280;7533;51.278;12.588;2023-08-06T01:43:01;99187.78;;;28.63;55.75
14882;BME280;7533;51.278;12.588;2023-08-06T01:48:04;99186.63;;;28.58;55.95
14882;BME280;7533;51.278;12.588;2023-08-06T01:53:08;99184.94;;;28.57;55.93
14882;BME280;7533;51.278;12.588;2023-08-06T01:58:11;99189.06;;;28.44;56.23
14882;BME280;7533;51.278;12.588;2023-08-06T02:03:14;99178.56;;;28.41;56.44
14882;BME280;7533;51.278;12.588;2023-08-06T02:08:18;99166.13;;;28.39;56.19
14882;BME280;7533;51.278;12.588;2023-08-06T02:13:21;99156.09;;;28.39;56.67
14882;BME280;7533;51.278;12.588;2023-08-06T02:18:24;99151.19;;;28.35;56.92
14882;BME280;7533;51.278;12.588;2023-08-06T02:23:28;99148.28;;;28.28;56.77
14882;BME280;7533;51.278;12.588;2023-08-06T02:28:32;99134.69;;;28.28;56.78
14882;BME280;7533;51.278;12.588;2023-08-06T02:33:35;99124.59;;;28.06;57.31
14882;BME280;7533;51.278;12.588;2023-08-06T02:38:39;99124.38;;;28.15;57.47
14882;BME280;7533;51.278;12.588;2023-08-06T02:43:42;99125.94;;;28.10;57.39
14882;BME280;7533;51.278;12.588;2023-08-06T02:48:45;99110.13;;;28.13;57.16
14882;BME280;7533;51.278;12.588;2023-08-06T02:53:50;99091.97;;;28.06;56.93
14882;BME280;7533;51.278;12.588;2023-08-06T02:58:55;99102.72;;;27.99;57.39
14882;BME280;7533;51.278;12.588;2023-08-06T03:04:18;99101.06;;;27.90;57.44
14882;BME280;7533;51.278;12.588;2023-08-06T03:09:24;99095.13;;;27.86;57.72
14882;BME280;7533;51.278;12.588;2023-08-06T03:14:27;99094.59;;;27.91;57.97
14882;BME280;7533;51.278;12.588;2023-08-06T03:19:32;99084.91;;;27.88;57.76
14882;BME280;7533;51.278;12.588;2023-08-06T03:24:36;99087.50;;;27.82;57.50
14882;BME280;7533;51.278;12.588;2023-08-06T03:29:39;99071.38;;;27.80;57.72
14882;BME280;7533;51.278;12.588;2023-08-06T03:34:43;99075.25;;;27.78;57.87
14882;BME280;7533;51.278;12.588;2023-08-06T03:39:47;99080.03;;;27.76;57.88
14882;BME280;7533;51.278;12.588;2023-08-06T03:44:51;99074.63;;;27.67;58.05
14882;BME280;7533;51.278;12.588;2023-08-06T03:49:54;99067.31;;;27.68;57.86
14882;BME280;7533;51.278;12.588;2023-08-06T03:54:58;99057.69;;;27.49;58.14
14882;BME280;7533;51.278;12.588;2023-08-06T04:00:02;99063.53;;;27.30;58.65
14882;BME280;7533;51.278;12.588;2023-08-06T04:05:15;99063.25;;;27.17;59.37
14882;BME280;7533;51.278;12.588;2023-08-06T04:10:20;99056.41;;;27.04;59.16
14882;BME280;7533;51.278;12.588;2023-08-06T04:15:23;99060.69;;;26.90;59.62
14882;BME280;7533;51.278;12.588;2023-08-06T04:20:26;99059.84;;;26.82;60.00
14882;BME280;7533;51.278;12.588;2023-08-06T04:25:30;99051.34;;;26.77;60.03
14882;BME280;7533;51.278;12.588;2023-08-06T04:30:33;99053.06;;;26.61;60.54
14882;BME280;7533;51.278;12.588;2023-08-06T04:35:37;99051.03;;;26.47;60.86
14882;BME280;7533;51.278;12.588;2023-08-06T04:40:41;99051.69;;;26.41;60.76
14882;BME280;7533;51.278;12.588;2023-08-06T04:45:48;99048.97;;;26.33;60.93
14882;BME280;7533;51.278;12.588;2023-08-06T04:50:51;99047.91;;;26.18;61.51
14882;BME280;7533;51.278;12.588;2023-08-06T04:55:55;99040.59;;;26.02;61.70
14882;BME280;7533;51.278;12.588;2023-08-06T05:00:58;99049.72;;;25.93;62.25
14882;BME280;7533;51.278;12.588;2023-08-06T05:06:01;99044.16;;;25.60;62.70
14882;BME280;7533;51.278;12.588;2023-08-06T05:11:05;99044.66;;;25.55;62.79
14882;BME280;7533;51.278;12.588;2023-08-06T05:16:08;99038.50;;;25.45;63.09
14882;BME280;7533;51.278;12.588;2023-08-06T05:21:11;99031.84;;;25.31;63.63
14882;BME280;7533;51.278;12.588;2023-08-06T05:26:16;99037.47;;;25.12;63.73
14882;BME280;7533;51.278;12.588;2023-08-06T05:31:21;99034.59;;;25.14;64.13
14882;BME280;7533;51.278;12.588;2023-08-06T05:36:23;99033.09;;;25.11;64.11
14882;BME280;7533;51.278;12.588;2023-08-06T05:41:31;99030.97;;;25.05;64.14
14882;BME280;7533;51.278;12.588;2023-08-06T05:46:34;99021.16;;;25.04;64.47
14882;BME280;7533;51.278;12.588;2023-08-06T05:51:37;99026.22;;;24.99;64.67
14882;BME280;7533;51.278;12.588;2023-08-06T05:56:41;99029.28;;;25.04;64.41
14882;BME280;7533;51.278;12.588;2023-08-06T06:01:44;99029.94;;;24.98;64.59
14882;BME280;7533;51.278;12.588;2023-08-06T06:06:47;99030.41;;;24.93;64.62
14882;BME280;7533;51.278;12.588;2023-08-06T06:11:52;99035.53;;;24.78;64.67
14882;BME280;7533;51.278;12.588;2023-08-06T06:16:55;99029.31;;;24.60;65.29
14882;BME280;7533;51.278;12.588;2023-08-06T06:22:00;99029.56;;;24.31;65.12
14882;BME280;7533;51.278;12.588;2023-08-06T06:27:05;99024.38;;;24.20;65.50
14882;BME280;7533;51.278;12.588;2023-08-06T06:32:07;99014.94;;;24.06;65.16
14882;BME280;7533;51.278;12.588;2023-08-06T06:37:10;99011.84;;;24.01;66.04
14882;BME280;7533;51.278;12.588;2023-08-06T06:42:14;99010.31;;;23.98;66.12
14882;BME280;7533;51.278;12.588;2023-08-06T06:47:21;99013.69;;;23.83;65.97
14882;BME280;7533;51.278;12.588;2023-08-06T06:52:24;99009.84;;;23.85;65.56
14882;BME280;7533;51.278;12.588;2023-08-06T06:57:28;99008.59;;;23.80;66.19
14882;BME280;7533;51.278;12.588;2023-08-06T07:02:31;99011.34;;;23.42;66.18
14882;BME280;7533;51.278;12.588;2023-08-06T07:07:34;99020.75;;;23.01;67.66
14882;BME280;7533;51.278;12.588;2023-08-06T07:12:39;99012.13;;;22.68;68.70
14882;BME280;7533;51.278;12.588;2023-08-06T07:17:43;99018.78;;;22.93;67.97
14882;BME280;7533;51.278;12.588;2023-08-06T07:22:46;99008.81;;;22.94;68.32
14882;BME280;7533;51.278;12.588;2023-08-06T07:27:51;99017.78;;;22.85;68.18
14882;BME280;7533;51.278;12.588;2023-08-06T07:32:54;99014.94;;;22.96;68.55
14882;BME280;7533;51.278;12.588;2023-08-06T07:37:57;99016.78;;;22.76;68.57
14882;BME280;7533;51.278;12.588;2023-08-06T07:43:01;99026.56;;;23.34;67.99
14882;BME280;7533;51.278;12.588;2023-08-06T07:48:04;99021.31;;;23.69;66.97
14882;BME280;7533;51.278;12.588;2023-08-06T07:53:07;99011.84;;;24.01;66.32
14882;BME280;7533;51.278;12.588;2023-08-06T07:58:11;99013.09;;;24.24;66.11
14882;BME280;7533;51.278;12.588;2023-08-06T08:03:15;99017.69;;;24.42;66.09
14882;BME280;7533;51.278;12.588;2023-08-06T08:08:19;99007.28;;;24.55;65.94
14882;BME280;7533;51.278;12.588;2023-08-06T08:13:23;99006.19;;;24.66;66.19
14882;BME280;7533;51.278;12.588;2023-08-06T08:18:26;98998.66;;;24.77;65.74
14882;BME280;7533;51.278;12.588;2023-08-06T08:23:29;99007.84;;;24.85;65.89
14882;BME280;7533;51.278;12.588;2023-08-06T08:28:34;98997.09;;;24.93;65.90
14882;BME280;7533;51.278;12.588;2023-08-06T08:33:37;98995.41;;;25.00;65.84
14882;BME280;7533;51.278;12.588;2023-08-06T08:38:40;98979.41;;;25.06;65.73
14882;BME280;7533;51.278;12.588;2023-08-06T08:43:47;98982.19;;;25.15;65.84
14882;BME280;7533;51.278;12.588;2023-08-06T08:48:52;98968.66;;;25.23;65.46
14882;BME280;7533;51.278;12.588;2023-08-06T08:53:56;98967.00;;;25.30;65.29
14882;BME280;7533;51.278;12.588;2023-08-06T08:59:00;98967.03;;;25.38;65.36
14882;BME280;7533;51.278;12.588;2023-08-06T09:04:04;98959.63;;;25.48;65.23
14882;BME280;7533;51.278;12.588;2023-08-06T09:09:17;98958.78;;;25.56;65.08
14882;BME280;7533;51.278;12.588;2023-08-06T09:14:25;98958.81;;;25.64;64.93
14882;BME280;7533;51.278;12.588;2023-08-06T09:19:29;98953.41;;;25.72;64.71
14882;BME280;7533;51.278;12.588;2023-08-06T09:24:32;98949.06;;;25.79;64.41
14882;BME280;7533;51.278;12.588;2023-08-06T09:29:40;98946.53;;;25.86;64.48
14882;BME280;7533;51.278;12.588;2023-08-06T09:34:43;98946.38;;;25.96;63.94
14882;BME280;7533;51.278;12.588;2023-08-06T09:39:46;98939.44;;;26.01;63.91
14882;BME280;7533;51.278;12.588;2023-08-06T09:44:51;98935.53;;;26.04;63.99
14882;BME280;7533;51.278;12.588;2023-08-06T09:49:56;98940.28;;;26.10;63.64
14882;BME280;7533;51.278;12.588;2023-08-06T09:55:00;98940.59;;;26.15;63.61
14882;BME280;7533;51.278;12.588;2023-08-06T10:00:07;98936.53;;;26.19;63.75
14882;BME280;7533;51.278;12.588;2023-08-06T10:05:15;98919.75;;;26.24;63.38
14882;BME280;7533;51.278;12.588;2023-08-06T10:10:18;98922.66;;;26.06;60.59
14882;BME280;7533;51.278;12.588;2023-08-06T10:15:25;98907.31;;;25.48;60.54
14882;BME280;7533;51.278;12.588;2023-08-06T10:20:33;98904.88;;;25.20;60.11
14882;BME280;7533;51.278;12.588;2023-08-06T10:25:40;98897.41;;;25.22;60.20
14882;BME280;7533;51.278;12.588;2023-08-06T10:30:47;98901.09;;;25.13;60.33
14882;BME280;7533;51.278;12.588;2023-08-06T10:35:50;98892.59;;;25.08;58.70
14882;BME280;7533;51.278;12.588;2023-08-06T10:41:01;98880.25;;;25.05;58.44
14882;BME280;7533;51.278;12.588;2023-08-06T10:46:11;98876.06;;;24.85;57.85
14882;BME280;7533;51.278;12.588;2023-08-06T10:51:15;98861.00;;;25.09;58.82
14882;BME280;7533;51.278;12.588;2023-08-06T10:56:20;98857.00;;;25.45;58.80
14882;BME280;7533;51.278;12.588;2023-08-06T11:01:28;98849.75;;;25.62;60.23
14882;BME280;7533;51.278;12.588;2023-08-06T11:06:32;98825.22;;;25.80;60.32
14882;BME280;7533;51.278;12.588;2023-08-06T11:11:36;98833.00;;;25.91;60.18
14882;BME280;7533;51.278;12.588;2023-08-06T11:16:41;98829.47;;;25.99;60.48
14882;BME280;7533;51.278;12.588;2023-08-06T11:21:44;98827.41;;;26.09;60.44
14882;BME280;7533;51.278;12.588;2023-08-06T11:26:49;98818.22;;;26.34;59.98
14882;BME280;7533;51.278;12.588;2023-08-06T11:32:03;98822.59;;;26.35;60.08
14882;BME280;7533;51.278;12.588;2023-08-06T11:37:06;98813.63;;;26.35;60.33
14882;BME280;7533;51.278;12.588;2023-08-06T11:42:11;98808.72;;;26.38;60.38
14882;BME280;7533;51.278;12.588;2023-08-06T11:47:17;98806.34;;;26.44;60.35
14882;BME280;7533;51.278;12.588;2023-08-06T11:52:22;98809.03;;;26.52;60.41
14882;BME280;7533;51.278;12.588;2023-08-06T11:57:25;98808.13;;;26.59;60.24
14882;BME280;7533;51.278;12.588;2023-08-06T12:02:31;98792.19;;;26.64;59.92
14882;BME280;7533;51.278;12.588;2023-08-06T12:07:37;98789.47;;;26.64;59.60
14882;BME280;7533;51.278;12.588;2023-08-06T12:12:41;98784.72;;;26.67;59.83
14882;BME280;7533;51.278;12.588;2023-08-06T12:17:45;98784.88;;;26.73;60.16
14882;BME280;7533;51.278;12.588;2023-08-06T12:22:48;98780.78;;;26.77;60.04
14882;BME280;7533;51.278;12.588;2023-08-06T12:27:52;98774.13;;;26.80;60.05
14882;BME280;7533;51.278;12.588;2023-08-06T12:32:56;98776.34;;;26.76;60.54
14882;BME280;7533;51.278;12.588;2023-08-06T12:37:59;98773.16;;;27.04;60.15
14882;BME280;7533;51.278;12.588;2023-08-06T12:43:02;98768.31;;;27.22;59.71
14882;BME280;7533;51.278;12.588;2023-08-06T12:48:06;98759.56;;;27.12;60.12
14882;BME280;7533;51.278;12.588;2023-08-06T12:53:09;98766.50;;;27.14;59.88
14882;BME280;7533;51.278;12.588;2023-08-06T12:58:12;98766.69;;;27.13;59.31
14882;BME280;7533;51.278;12.588;2023-08-06T13:03:17;98767.34;;;27.15;59.59
14882;BME280;7533;51.278;12.588;2023-08-06T13:08:20;98758.66;;;27.20;59.96
14882;BME280;7533;51.278;12.588;2023-08-06T13:13:23;98750.81;;;27.25;60.10
14882;BME280;7533;51.278;12.588;2023-08-06T13:18:29;98748.75;;;27.27;60.23
14882;BME280;7533;51.278;12.588;2023-08-06T13:23:32;98742.78;;;27.31;59.95
14882;BME280;7533;51.278;12.588;2023-08-06T13:28:35;98743.81;;;27.30;60.21
14882;BME280;7533;51.278;12.588;2023-08-06T13:33:40;98736.88;;;27.28;60.42
14882;BME280;7533;51.278;12.588;2023-08-06T13:38:43;98739.41;;;27.29;60.28
14882;BME280;7533;51.278;12.588;2023-08-06T13:43:46;98729.19;;;27.31;60.42
14882;BME280;7533;51.278;12.588;2023-08-06T13:48:51;98731.91;;;27.31;60.51
14882;BME280;7533;51.278;12.588;2023-08-06T13:53:54;98729.88;;;27.33;60.45
14882;BME280;7533;51.278;12.588;2023-08-06T13:58:58;98725.28;;;27.34;60.64
14882;BME280;7533;51.278;12.588;2023-08-06T14:04:04;98730.94;;;27.47;58.93
14882;BME280;7533;51.278;12.588;2023-08-06T14:09:07;98723.38;;;27.57;58.83
14882;BME280;7533;51.278;12.588;2023-08-06T14:14:10;98720.09;;;27.62;59.04
14882;BME280;7533;51.278;12.588;2023-08-06T14:19:15;98714.69;;;27.62;58.87
14882;BME280;7533;51.278;12.588;2023-08-06T14:24:18;98714.78;;;27.68;58.55
14882;BME280;7533;51.278;12.588;2023-08-06T14:29:21;98713.78;;;27.70;58.57
14882;BME280;7533;51.278;12.588;2023-08-06T14:34:25;98711.16;;;27.76;58.97
14882;BME280;7533;51.278;12.588;2023-08-06T14:39:29;98713.31;;;27.81;59.11
14882;BME280;7533;51.278;12.588;2023-08-06T14:44:32;98720.09;;;27.85;59.14
14882;BME280;7533;51.278;12.588;2023-08-06T14:49:37;98715.28;;;27.87;59.03
14882;BME280;7533;51.278;12.588;2023-08-06T14:54:40;98716.06;;;27.96;59.04
14882;BME280;7533;51.278;12.588;2023-08-06T14:59:43;98713.63;;;28.01;59.01
14882;BME280;7533;51.278;12.588;2023-08-06T15:04:47;98711.84;;;28.08;58.74
14882;BME280;7533;51.278;12.588;2023-08-06T15:09:51;98700.56;;;28.11;57.69
14882;BME280;7533;51.278;12.588;2023-08-06T15:15:15;98710.91;;;28.15;57.82
14882;BME280;7533;51.278;12.588;2023-08-06T15:20:19;98705.09;;;28.18;57.97
14882;BME280;7533;51.278;12.588;2023-08-06T15:25:22;98705.25;;;28.17;58.06
14882;BME280;7533;51.278;12.588;2023-08-06T15:30:25;98702.75;;;28.01;58.46
14882;BME280;7533;51.278;12.588;2023-08-06T15:35:30;98698.13;;;28.16;58.33
14882;BME280;7533;51.278;12.588;2023-08-06T15:40:33;98706.13;;;28.32;58.21
14882;BME280;7533;51.278;12.588;2023-08-06T15:45:36;98706.97;;;28.33;58.15
14882;BME280;7533;51.278;12.588;2023-08-06T15:50:40;98708.75;;;28.40;57.90
14882;BME280;7533;51.278;12.588;2023-08-06T15:55:46;98723.66;;;28.44;57.75
14882;BME280;7533;51.278;12.588;2023-08-06T16:00:49;98730.22;;;28.50;57.59
14882;BME280;7533;51.278;12.588;2023-08-06T16:05:55;98723.16;;;28.56;57.17
14882;BME280;7533;51.278;12.588;2023-08-06T16:10:58;98734.53;;;28.59;57.16
14882;BME280;7533;51.278;12.588;2023-08-06T16:16:00;98739.97;;;28.59;57.10
14882;BME280;7533;51.278;12.588;2023-08-06T16:21:05;98735.44;;;28.66;56.93
14882;BME280;7533;51.278;12.588;2023-08-06T16:26:08;98743.56;;;27.40;59.01
14882;BME280;7533;51.278;12.588;2023-08-06T16:31:11;98748.47;;;27.82;58.20
14882;BME280;7533;51.278;12.588;2023-08-06T16:36:15;98760.13;;;28.20;57.12
14882;BME280;7533;51.278;12.588;2023-08-06T16:41:18;98758.34;;;27.98;58.25
14882;BME280;7533;51.278;12.588;2023-08-06T16:46:21;98757.16;;;28.30;56.83
14882;BME280;7533;51.278;12.588;2023-08-06T16:51:25;98763.97;;;28.11;57.23
14882;BME280;7533;51.278;12.588;2023-08-06T16:56:28;98762.44;;;27.79;57.35
14882;BME280;7533;51.278;12.588;2023-08-06T17:01:32;98778.19;;;27.38;58.86
14882;BME280;7533;51.278;12.588;2023-08-06T17:06:38;98780.81;;;27.31;59.87
14882;BME280;7533;51.278;12.588;2023-08-06T17:11:41;98793.44;;;26.85;62.39
14882;BME280;7533;51.278;12.588;2023-08-06T17:16:44;98813.34;;;26.05;64.31
14882;BME280;7533;51.278;12.588;2023-08-06T17:21:48;98821.94;;;25.36;65.80
14882;BME280;7533;51.278;12.588;2023-08-06T17:26:51;98825.28;;;25.13;65.15
14882;BME280;7533;51.278;12.588;2023-08-06T17:32:00;98837.41;;;25.68;66.51
14882;BME280;7533;51.278;12.588;2023-08-06T17:37:05;98840.38;;;26.62;62.80
14882;BME280;7533;51.278;12.588;2023-08-06T17:42:08;98864.81;;;27.02;61.35
14882;BME280;7533;51.278;12.588;2023-08-06T17:47:12;98870.34;;;27.25;60.64
14882;BME280;7533;51.278;12.588;2023-08-06T17:52:36;98844.75;;;27.42;60.40
14882;BME280;7533;51.278;12.588;2023-08-06T17:57:39;98856.59;;;27.49;60.08
14882;BME280;7533;51.278;12.588;2023-08-06T18:02:42;98848.50;;;27.64;59.69
14882;BME280;7533;51.278;12.588;2023-08-06T18:07:46;98854.59;;;27.66;59.78
14882;BME280;7533;51.278;12.588;2023-08-06T18:12:49;98862.97;;;27.87;59.23
14882;BME280;7533;51.278;12.588;2023-08-06T18:17:52;98861.03;;;27.96;58.90
14882;BME280;7533;51.278;12.588;2023-08-06T18:22:56;98858.72;;;28.08;58.85
14882;BME280;7533;51.278;12.588;2023-08-06T18:28:00;98857.34;;;28.12;58.55
14882;BME280;7533;51.278;12.588;2023-08-06T18:33:03;98859.97;;;28.20;58.73
14882;BME280;7533;51.278;12.588;2023-08-06T18:38:07;98851.06;;;28.26;58.43
14882;BME280;7533;51.278;12.588;2023-08-06T18:43:10;98850.88;;;28.28;58.15
14882;BME280;7533;51.278;12.588;2023-08-06T18:48:13;98842.19;;;28.32;58.31
14882;BME280;7533;51.278;12.588;2023-08-06T18:53:19;98846.50;;;28.41;57.99
14882;BME280;7533;51.278;12.588;2023-08-06T18:58:22;98859.19;;;28.49;58.07
14882;BME280;7533;51.278;12.588;2023-08-06T19:03:25;98861.16;;;28.55;57.59
14882;BME280;7533;51.278;12.588;2023-08-06T19:08:30;98864.72;;;28.56;57.79
14882;BME280;7533;51.278;12.588;2023-08-06T19:13:33;98873.84;;;28.63;57.35
14882;BME280;7533;51.278;12.588;2023-08-06T19:18:36;98871.78;;;28.65;57.62
14882;BME280;7533;51.278;12.588;2023-08-06T19:23:40;98871.03;;;28.71;57.54
14882;BME280;7533;51.278;12.588;2023-08-06T19:28:43;98879.19;;;28.71;57.40
14882;BME280;7533;51.278;12.588;2023-08-06T19:33:46;98886.59;;;28.77;57.23
14882;BME280;7533;51.278;12.588;2023-08-06T19:38:50;98899.09;;;28.71;57.05
14882;BME280;7533;51.278;12.588;2023-08-06T19:43:54;98898.81;;;28.81;56.87
14882;BME280;7533;51.278;12.588;2023-08-06T19:48:57;98893.09;;;28.91;56.60
14882;BME280;7533;51.278;12.588;2023-08-06T19:54:04;98886.81;;;28.90;56.89
14882;BME280;7533;51.278;12.588;2023-08-06T19:59:07;98891.22;;;28.91;56.89
14882;BME280;7533;51.278;12.588;2023-08-06T20:04:10;98879.78;;;28.96;56.26
14882;BME280;7533;51.278;12.588;2023-08-06T20:09:14;98886.34;;;29.02;56.55
14882;BME280;7533;51.278;12.588;2023-08-06T20:14:17;98889.94;;;29.02;56.28
14882;BME280;7533;51.278;12.588;2023-08-06T20:19:20;98888.31;;;29.08;56.10
14882;BME280;7533;51.278;12.588;2023-08-06T20:24:25;98892.25;;;29.05;56.51
14882;BME280;7533;51.278;12.588;2023-08-06T20:29:28;98888.97;;;29.10;56.05
14882;BME280;7533;51.278;12.588;2023-08-06T20:34:31;98885.75;;;29.06;56.03
14882;BME280;7533;51.278;12.588;2023-08-06T20:39:35;98885.19;;;29.11;56.00
14882;BME280;7533;51.278;12.588;2023-08-06T20:44:38;98885.47;;;29.16;55.99
14882;BME280;7533;51.278;12.588;2023-08-06T20:49:41;98874.38;;;29.17;55.91
14882;BME280;7533;51.278;12.588;2023-08-06T20:54:45;98888.28;;;29.22;55.76
14882;BME280;7533;51.278;12.588;2023-08-06T20:59:48;98894.28;;;29.18;56.14
14882;BME280;7533;51.278;12.588;2023-08-06T21:04:52;98900.69;;;29.25;55.91
14882;BME280;7533;51.278;12.588;2023-08-06T21:09:56;98889.97;;;29.23;55.64
14882;BME280;7533;51.278;12.588;2023-08-06T21:14:59;98896.38;;;29.31;55.54
14882;BME280;7533;51.278;12.588;2023-08-06T21:20:02;98903.03;;;29.28;55.52
14882;BME280;7533;51.278;12.588;2023-08-06T21:25:07;98902.31;;;29.19;55.97
14882;BME280;7533;51.278;12.588;2023-08-06T21:30:10;98899.84;;;29.24;55.55
14882;BME280;7533;51.278;12.588;2023-08-06T21:35:14;98911.19;;;29.28;55.79
14882;BME280;7533;51.278;12.588;2023-08-06T21:40:19;98907.44;;;29.29;55.31
14882;BME280;7533;51.278;12.588;2023-08-06T21:45:22;98914.75;;;29.29;55.52
14882;BME280;7533;51.278;12.588;2023-08-06T21:50:24;98916.28;;;29.31;55.40
14882;BME280;7533;51.278;12.588;2023-08-06T21:55:30;98916.66;;;29.28;55.47
14882;BME280;7533;51.278;12.588;2023-08-06T22:00:34;98917.78;;;29.34;55.16
14882;BME280;7533;51.278;12.588;2023-08-06T22:05:38;98908.75;;;29.33;55.48
14882;BME280;7533;51.278;12.588;2023-08-06T22:10:42;98911.19;;;29.28;55.23
14882;BME280;7533;51.278;12.588;2023-08-06T22:15:45;98912.88;;;29.29;55.26
14882;BME280;7533;51.278;12.588;2023-08-06T22:20:48;98913.19;;;29.19;55.47
14882;BME280;7533;51.278;12.588;2023-08-06T22:25:53;98929.06;;;29.16;55.42
14882;BME280;7533;51.278;12.588;2023-08-06T22:30:57;98923.53;;;29.09;55.65
14882;BME280;7533;51.278;12.588;2023-08-06T22:36:00;98924.94;;;29.05;55.79
14882;BME280;7533;51.278;12.588;2023-08-06T22:41:04;98922.97;;;28.99;56.02
14882;BME280;7533;51.278;12.588;2023-08-06T22:46:09;98930.19;;;28.92;55.95
14882;BME280;7533;51.278;12.588;2023-08-06T22:51:11;98932.81;;;28.85;56.07
14882;BME280;7533;51.278;12.588;2023-08-06T22:56:16;98937.13;;;28.80;56.56
14882;BME280;7533;51.278;12.588;2023-08-06T23:01:19;98936.66;;;28.76;56.38
14882;BME280;7533;51.278;12.588;2023-08-06T23:06:22;98933.44;;;28.72;56.69
14882;BME280;7533;51.278;12.588;2023-08-06T23:11:26;98931.97;;;28.70;56.82
14882;BME280;7533;51.278;12.588;2023-08-06T23:16:29;98928.09;;;28.64;56.60
14882;BME280;7533;51.278;12.588;2023-08-06T23:21:31;98936.63;;;28.61;56.75
14882;BME280;7533;51.278;12.588;2023-08-06T23:26:36;98934.28;;;28.58;56.81
14882;BME280;7533;51.278;12.588;2023-08-06T23:31:39;98932.78;;;28.56;56.95
14882;BME280;7533;51.278;12.588;2023-08-06T23:36:42;98951.53;;;28.51;56.92
14882;BME280;7533;51.278;12.588;2023-08-06T23:41:46;98950.38;;;28.45;56.83
14882;BME280;7533;51.278;12.588;2023-08-06T23:46:49;98951.13;;;28.39;57.05
14882;BME280;7533;51.278;12.588;2023-08-06T23:51:52;98947.25;;;28.33;57.05
14882;BME280;7533;51.278;12.588;2023-08-06T23:56:56;98944.22;;;28.28;57.29
